createdAt,value
2023-03-16T00:00:07.859Z,18.8
2023-03-16T00:01:09.720Z,18.8
2023-03-16T00:02:11.703Z,18.8
2023-03-16T00:03:13.951Z,18.8
2023-03-16T00:04:15.844Z,18.8
2023-03-16T00:05:17.912Z,18.8
2023-03-16T00:06:19.890Z,18.8
2023-03-16T00:07:21.771Z,18.8
2023-03-16T00:08:23.687Z,18.8
2023-03-16T00:09:25.544Z,18.8
2023-03-16T00:10:28.282Z,18.8
2023-03-16T00:11:30.983Z,18.8
2023-03-16T00:12:32.932Z,18.8
2023-03-16T00:13:34.784Z,18.8
2023-03-16T00:14:36.644Z,18.8
2023-03-16T00:15:38.479Z,18.8
2023-03-16T00:16:40.613Z,18.7
2023-03-16T00:17:42.810Z,18.8
2023-03-16T00:18:44.645Z,18.8
2023-03-16T00:19:46.493Z,18.8
2023-03-16T00:20:48.357Z,18.8
2023-03-16T00:21:50.400Z,18.8
2023-03-16T00:22:52.382Z,18.8
2023-03-16T00:23:54.218Z,18.8
2023-03-16T00:24:56.162Z,18.8
2023-03-16T00:25:58.012Z,18.8
2023-03-16T00:26:59.864Z,18.8
2023-03-16T00:28:01.806Z,18.7
2023-03-16T00:29:03.655Z,18.7
2023-03-16T00:30:05.510Z,18.7
2023-03-16T00:31:07.461Z,18.7
2023-03-16T00:32:09.347Z,18.7
2023-03-16T00:33:11.298Z,18.7
2023-03-16T00:34:13.210Z,18.7
2023-03-16T00:35:15.074Z,18.7
2023-03-16T00:36:16.921Z,18.7
2023-03-16T00:37:18.913Z,18.7
2023-03-16T00:38:21.119Z,18.7
2023-03-16T00:39:22.875Z,18.7
2023-03-16T00:40:24.722Z,18.7
2023-03-16T00:41:27.294Z,18.7
2023-03-16T00:42:29.147Z,18.7
2023-03-16T00:43:30.987Z,18.7
2023-03-16T00:44:32.943Z,18.7
2023-03-16T00:45:35.045Z,18.7
2023-03-16T00:46:36.957Z,18.7
2023-03-16T00:47:38.755Z,18.6
2023-03-16T00:48:40.550Z,18.6
2023-03-16T00:49:42.398Z,18.6
2023-03-16T00:50:44.420Z,18.6
2023-03-16T00:51:46.507Z,18.6
2023-03-16T00:52:48.455Z,18.6
2023-03-16T00:53:50.439Z,18.6
2023-03-16T00:54:52.259Z,18.6
2023-03-16T00:55:54.102Z,18.6
2023-03-16T00:56:56.056Z,18.6
2023-03-16T00:57:57.912Z,18.6
2023-03-16T00:58:59.659Z,18.6
2023-03-16T01:00:01.688Z,18.6
2023-03-16T01:01:03.730Z,18.6
2023-03-16T01:02:05.939Z,18.6
2023-03-16T01:03:07.946Z,18.6
2023-03-16T01:04:10.031Z,18.6
2023-03-16T01:05:11.895Z,18.6
2023-03-16T01:06:13.730Z,18.5
2023-03-16T01:07:15.568Z,18.6
2023-03-16T01:08:17.541Z,18.6
2023-03-16T01:09:19.321Z,18.6
2023-03-16T01:10:21.236Z,18.6
2023-03-16T01:11:23.289Z,18.6
2023-03-16T01:12:25.240Z,18.6
2023-03-16T01:13:27.091Z,18.6
2023-03-16T01:14:29.153Z,18.6
2023-03-16T01:15:31.002Z,18.6
2023-03-16T01:16:32.970Z,18.6
2023-03-16T01:17:35.529Z,18.5
2023-03-16T01:18:37.485Z,18.6
2023-03-16T01:19:39.425Z,18.6
2023-03-16T01:20:41.376Z,18.6
2023-03-16T01:21:43.460Z,18.6
2023-03-16T01:22:45.292Z,18.5
2023-03-16T01:23:47.141Z,18.5
2023-03-16T01:24:49.014Z,18.5
2023-03-16T01:25:50.846Z,18.5
2023-03-16T01:26:52.796Z,18.5
2023-03-16T01:27:54.604Z,18.5
2023-03-16T01:28:56.486Z,18.5
2023-03-16T01:29:58.346Z,18.5
2023-03-16T01:31:00.358Z,18.5
2023-03-16T01:32:02.357Z,18.5
2023-03-16T01:33:04.343Z,18.5
2023-03-16T01:34:06.245Z,18.5
2023-03-16T01:35:08.103Z,18.5
2023-03-16T01:36:10.053Z,18.5
2023-03-16T01:37:11.908Z,18.5
2023-03-16T01:38:13.746Z,18.5
2023-03-16T01:39:15.702Z,18.5
2023-03-16T01:40:17.576Z,18.5
2023-03-16T01:41:19.506Z,18.5
2023-03-16T01:42:21.456Z,18.5
2023-03-16T01:43:23.305Z,18.4
2023-03-16T01:44:25.128Z,18.4
2023-03-16T01:45:27.007Z,18.5
2023-03-16T01:46:29.177Z,18.5
2023-03-16T01:47:31.226Z,18.5
2023-03-16T01:48:33.080Z,18.5
2023-03-16T01:49:34.811Z,18.4
2023-03-16T01:50:36.682Z,18.5
2023-03-16T01:51:38.623Z,18.4
2023-03-16T01:52:40.570Z,18.4
2023-03-16T01:53:42.531Z,18.5
2023-03-16T01:54:44.476Z,18.4
2023-03-16T01:55:46.361Z,18.4
2023-03-16T01:56:48.379Z,18.4
2023-03-16T01:57:50.157Z,18.4
2023-03-16T01:58:51.979Z,18.4
2023-03-16T01:59:53.794Z,18.4
2023-03-16T02:00:55.882Z,18.4
2023-03-16T02:01:57.845Z,18.4
2023-03-16T02:02:59.687Z,18.4
2023-03-16T02:04:01.799Z,18.4
2023-03-16T02:05:04.314Z,18.4
2023-03-16T02:06:06.159Z,18.4
2023-03-16T02:07:08.118Z,18.4
2023-03-16T02:08:10.067Z,18.4
2023-03-16T02:09:11.885Z,18.4
2023-03-16T02:10:13.766Z,18.4
2023-03-16T02:11:15.610Z,18.3
2023-03-16T02:12:17.568Z,18.4
2023-03-16T02:13:19.629Z,18.4
2023-03-16T02:14:21.480Z,18.4
2023-03-16T02:15:23.327Z,18.4
2023-03-16T02:16:25.167Z,18.4
2023-03-16T02:17:27.137Z,18.4
2023-03-16T02:18:28.976Z,18.4
2023-03-16T02:19:30.734Z,18.4
2023-03-16T02:20:32.570Z,18.4
2023-03-16T02:21:34.423Z,18.4
2023-03-16T02:22:36.386Z,18.4
2023-03-16T02:23:38.236Z,18.4
2023-03-16T02:24:40.084Z,18.4
2023-03-16T02:25:42.041Z,18.4
2023-03-16T02:26:43.903Z,18.4
2023-03-16T02:27:45.821Z,18.3
2023-03-16T02:28:47.776Z,18.3
2023-03-16T02:29:49.736Z,18.3
2023-03-16T02:30:51.703Z,18.3
2023-03-16T02:31:53.634Z,18.3
2023-03-16T02:32:55.709Z,18.3
2023-03-16T02:33:57.743Z,18.3
2023-03-16T02:34:59.610Z,18.3
2023-03-16T02:36:01.705Z,18.3
2023-03-16T02:37:03.601Z,18.3
2023-03-16T02:38:05.469Z,18.3
2023-03-16T02:39:07.304Z,18.3
2023-03-16T02:40:09.206Z,18.2
2023-03-16T02:41:11.108Z,18.3
2023-03-16T02:42:12.990Z,18.3
2023-03-16T02:43:14.812Z,18.3
2023-03-16T02:44:16.661Z,18.3
2023-03-16T02:45:18.513Z,18.3
2023-03-16T02:46:20.503Z,18.3
2023-03-16T02:47:22.722Z,18.3
2023-03-16T02:48:24.668Z,18.3
2023-03-16T02:49:26.526Z,18.2
2023-03-16T02:50:29.148Z,18.2
2023-03-16T02:51:31.754Z,18.2
2023-03-16T02:52:33.707Z,18.2
2023-03-16T02:53:35.659Z,18.2
2023-03-16T02:54:37.511Z,18.2
2023-03-16T02:55:39.357Z,18.2
2023-03-16T02:56:41.312Z,18.2
2023-03-16T02:57:43.201Z,18.2
2023-03-16T02:58:45.221Z,18.2
2023-03-16T02:59:47.075Z,18.2
2023-03-16T03:00:48.920Z,18.2
2023-03-16T03:01:50.772Z,18.2
2023-03-16T03:02:52.891Z,18.2
2023-03-16T03:03:54.882Z,18.2
2023-03-16T03:04:56.726Z,18.2
2023-03-16T03:05:58.584Z,18.2
2023-03-16T03:07:00.530Z,18.2
2023-03-16T03:08:02.393Z,18.2
2023-03-16T03:09:04.229Z,18.2
2023-03-16T03:10:06.098Z,18.2
2023-03-16T03:11:07.941Z,18.2
2023-03-16T03:12:09.879Z,18.2
2023-03-16T03:13:11.867Z,18.2
2023-03-16T03:14:13.691Z,18.2
2023-03-16T03:15:15.542Z,18.2
2023-03-16T03:16:17.667Z,18.2
2023-03-16T03:17:19.651Z,18.2
2023-03-16T03:18:21.613Z,18.2
2023-03-16T03:19:23.454Z,18.2
2023-03-16T03:20:25.294Z,18.2
2023-03-16T03:21:27.247Z,18.2
2023-03-16T03:22:29.077Z,18.2
2023-03-16T03:23:30.947Z,18.2
2023-03-16T03:24:32.809Z,18.1
2023-03-16T03:25:34.798Z,18.1
2023-03-16T03:26:36.823Z,18.1
2023-03-16T03:27:38.715Z,18.1
2023-03-16T03:28:40.742Z,18.1
2023-03-16T03:29:42.562Z,18.1
2023-03-16T03:30:44.431Z,18.1
2023-03-16T03:31:46.420Z,18.1
2023-03-16T03:32:48.587Z,18.1
2023-03-16T03:33:50.676Z,18.1
2023-03-16T03:34:52.820Z,18.1
2023-03-16T03:35:54.839Z,18.1
2023-03-16T03:36:56.840Z,18.1
2023-03-16T03:37:58.811Z,18.2
2023-03-16T03:39:00.645Z,18.1
2023-03-16T03:40:02.600Z,18.1
2023-03-16T03:41:04.460Z,18.1
2023-03-16T03:42:06.299Z,18.1
2023-03-16T03:43:08.251Z,18.1
2023-03-16T03:44:10.231Z,18.1
2023-03-16T03:45:12.053Z,18.1
2023-03-16T03:46:14.227Z,18.1
2023-03-16T03:47:16.520Z,18.1
2023-03-16T03:48:18.220Z,18.1
2023-03-16T03:49:20.180Z,18.1
2023-03-16T03:50:21.918Z,18.1
2023-03-16T03:51:23.881Z,18.1
2023-03-16T03:52:25.725Z,18.1
2023-03-16T03:53:27.534Z,18.1
2023-03-16T03:54:29.429Z,18.1
2023-03-16T03:55:31.380Z,18.1
2023-03-16T03:56:33.221Z,18.1
2023-03-16T03:57:35.069Z,18.1
2023-03-16T03:58:37.034Z,18.1
2023-03-16T03:59:38.895Z,18.2
2023-03-16T04:00:40.837Z,18.2
2023-03-16T04:01:42.681Z,18.1
2023-03-16T04:02:44.628Z,18.1
2023-03-16T04:03:46.885Z,18.1
2023-03-16T04:04:48.746Z,18.1
2023-03-16T04:05:50.594Z,18.1
2023-03-16T04:06:52.449Z,18.1
2023-03-16T04:07:54.287Z,18.1
2023-03-16T04:08:56.239Z,18.1
2023-03-16T04:09:57.961Z,18.1
2023-03-16T04:10:59.744Z,18
2023-03-16T04:12:01.701Z,18.1
2023-03-16T04:13:03.544Z,18.1
2023-03-16T04:14:05.490Z,18.1
2023-03-16T04:15:07.362Z,18.1
2023-03-16T04:16:09.201Z,18.1
2023-03-16T04:17:11.144Z,18.1
2023-03-16T04:18:13.011Z,18.1
2023-03-16T04:19:14.950Z,18.3
2023-03-16T04:20:16.692Z,18.3
2023-03-16T04:21:18.557Z,18.2
2023-03-16T04:22:20.393Z,18.3
2023-03-16T04:23:22.241Z,18.3
2023-03-16T04:24:23.991Z,18.4
2023-03-16T04:25:25.841Z,18.4
2023-03-16T04:26:27.675Z,18.4
2023-03-16T04:27:29.649Z,18.4
2023-03-16T04:28:31.501Z,18.4
2023-03-16T04:29:33.453Z,18.4
2023-03-16T04:30:35.545Z,18.4
2023-03-16T04:31:37.662Z,18.3
2023-03-16T04:32:39.563Z,18.3
2023-03-16T04:33:41.791Z,18.3
2023-03-16T04:34:43.515Z,18.3
2023-03-16T04:35:45.630Z,18.4
2023-03-16T04:36:47.840Z,18.5
2023-03-16T04:37:49.679Z,18.5
2023-03-16T04:38:51.538Z,18.5
2023-03-16T04:39:53.292Z,18.5
2023-03-16T04:40:55.137Z,18.5
2023-03-16T04:41:57.092Z,18.5
2023-03-16T04:42:59.032Z,18.5
2023-03-16T04:44:00.787Z,18.6
2023-03-16T04:45:02.737Z,18.5
2023-03-16T04:46:04.787Z,18.5
2023-03-16T04:47:06.750Z,18.6
2023-03-16T04:48:08.599Z,18.5
2023-03-16T04:49:10.560Z,18.5
2023-03-16T04:50:12.599Z,18.5
2023-03-16T04:51:14.662Z,18.5
2023-03-16T04:52:16.521Z,18.5
2023-03-16T04:53:18.460Z,18.4
2023-03-16T04:54:20.425Z,18.3
2023-03-16T04:55:22.271Z,18.4
2023-03-16T04:56:24.005Z,18.3
2023-03-16T04:57:25.864Z,18.4
2023-03-16T04:58:27.821Z,18.5
2023-03-16T04:59:29.790Z,18.4
2023-03-16T05:00:31.931Z,18.4
2023-03-16T05:01:33.956Z,18.3
2023-03-16T05:02:35.795Z,18.4
2023-03-16T05:03:37.791Z,18.4
2023-03-16T05:04:39.623Z,18.5
2023-03-16T05:05:41.571Z,18.5
2023-03-16T05:06:43.539Z,18.4
2023-03-16T05:07:45.384Z,18.4
2023-03-16T05:08:47.329Z,18.3
2023-03-16T05:09:49.086Z,18.3
2023-03-16T05:10:50.939Z,18.2
2023-03-16T05:11:52.778Z,18.2
2023-03-16T05:12:54.630Z,18.2
2023-03-16T05:13:56.396Z,18.2
2023-03-16T05:14:58.223Z,18.1
2023-03-16T05:16:01.897Z,18.1
2023-03-16T05:17:04.142Z,18.1
2023-03-16T05:18:06.035Z,18.1
2023-03-16T05:19:07.990Z,18
2023-03-16T05:20:09.703Z,18
2023-03-16T05:21:11.590Z,18
2023-03-16T05:22:13.439Z,18.1
2023-03-16T05:23:15.281Z,18.1
2023-03-16T05:24:17.146Z,18
2023-03-16T05:25:18.996Z,18
2023-03-16T05:26:20.852Z,18
2023-03-16T05:27:22.676Z,18.1
2023-03-16T05:28:24.544Z,18.1
2023-03-16T05:29:26.387Z,18.3
2023-03-16T05:30:28.629Z,18.5
2023-03-16T05:31:32.005Z,18.4
2023-03-16T05:32:34.265Z,18.3
2023-03-16T05:33:36.203Z,18.5
2023-03-16T05:34:38.106Z,18.5
2023-03-16T05:35:40.089Z,18.3
2023-03-16T05:36:42.331Z,18.2
2023-03-16T05:37:44.263Z,18.2
2023-03-16T05:38:46.113Z,18.2
2023-03-16T05:39:50.845Z,18.2
2023-03-16T05:40:52.691Z,18.2
2023-03-16T05:41:54.949Z,18.2
2023-03-16T05:42:56.893Z,18.3
2023-03-16T05:43:58.858Z,18.3
2023-03-16T05:45:00.656Z,18.3
2023-03-16T05:46:02.717Z,18.3
2023-03-16T05:47:04.829Z,18.3
2023-03-16T05:48:06.795Z,18.2
2023-03-16T05:49:08.715Z,18.2
2023-03-16T05:50:10.464Z,18.2
2023-03-16T05:51:12.415Z,18.2
2023-03-16T05:52:14.261Z,18.2
2023-03-16T05:53:16.124Z,18.2
2023-03-16T05:54:18.073Z,18.3
2023-03-16T05:55:19.917Z,18.3
2023-03-16T05:56:21.744Z,18.2
2023-03-16T05:57:23.800Z,18.2
2023-03-16T05:58:25.785Z,18.2
2023-03-16T05:59:27.527Z,18.2
2023-03-16T06:00:30.370Z,18.2
2023-03-16T06:01:32.554Z,18.2
2023-03-16T06:02:34.506Z,18.2
2023-03-16T06:03:36.923Z,18.2
2023-03-16T06:04:39.020Z,18.2
2023-03-16T06:05:40.876Z,18.1
2023-03-16T06:06:42.720Z,18.2
2023-03-16T06:07:44.677Z,18.2
2023-03-16T06:08:46.534Z,18.2
2023-03-16T06:09:48.378Z,18.2
2023-03-16T06:10:50.344Z,18.3
2023-03-16T06:11:52.174Z,18.2
2023-03-16T06:12:53.938Z,18.3
2023-03-16T06:13:55.883Z,18.3
2023-03-16T06:14:57.637Z,18.3
2023-03-16T06:15:59.499Z,18.4
2023-03-16T06:17:01.548Z,18.3
2023-03-16T06:18:03.581Z,18.3
2023-03-16T06:19:05.368Z,18.3
2023-03-16T06:20:07.146Z,18.3
2023-03-16T06:21:09.240Z,18.3
2023-03-16T06:22:11.141Z,18.3
2023-03-16T06:23:13.141Z,18.3
2023-03-16T06:24:15.088Z,18.3
2023-03-16T06:25:16.948Z,18.3
2023-03-16T06:26:18.905Z,18.3
2023-03-16T06:27:20.750Z,18.3
2023-03-16T06:28:22.772Z,18.3
2023-03-16T06:29:25.064Z,18.3
2023-03-16T06:30:27.533Z,18.3
2023-03-16T06:31:30.147Z,18.4
2023-03-16T06:32:32.198Z,18.3
2023-03-16T06:33:34.307Z,18.3
2023-03-16T06:34:38.549Z,18.3
2023-03-16T06:35:40.486Z,18.3
2023-03-16T06:36:42.312Z,18.3
2023-03-16T06:37:44.178Z,18.3
2023-03-16T06:38:46.011Z,18.2
2023-03-16T06:39:47.869Z,18.2
2023-03-16T06:40:49.523Z,18.3
2023-03-16T06:41:51.258Z,18.3
2023-03-16T06:42:53.111Z,18.4
2023-03-16T06:43:55.236Z,18.4
2023-03-16T06:44:57.233Z,18.4
2023-03-16T06:45:59.239Z,18.4
2023-03-16T06:47:01.213Z,18.4
2023-03-16T06:48:02.977Z,18.4
2023-03-16T06:49:05.355Z,18.4
2023-03-16T06:50:07.216Z,18.3
2023-03-16T06:51:09.041Z,18.3
2023-03-16T06:52:10.890Z,18.3
2023-03-16T06:53:12.634Z,18.4
2023-03-16T06:54:14.478Z,18.5
2023-03-16T06:55:16.325Z,18.5
2023-03-16T06:56:18.205Z,18.4
2023-03-16T06:57:20.039Z,18.4
2023-03-16T06:58:22.007Z,18.4
2023-03-16T06:59:24.342Z,18.3
2023-03-16T07:00:27.027Z,18.4
2023-03-16T07:01:29.946Z,18.3
2023-03-16T07:02:31.938Z,18.3
2023-03-16T07:03:33.968Z,18.3
2023-03-16T07:04:36.206Z,18.4
2023-03-16T07:05:38.442Z,18.4
2023-03-16T07:06:40.265Z,18.4
2023-03-16T07:07:42.045Z,18.4
2023-03-16T07:08:43.851Z,18.4
2023-03-16T07:09:45.691Z,18.5
2023-03-16T07:10:47.575Z,18.4
2023-03-16T07:11:49.367Z,18.4
2023-03-16T07:12:51.155Z,18.3
2023-03-16T07:13:53.108Z,18.4
2023-03-16T07:14:54.879Z,18.4
2023-03-16T07:15:56.712Z,18.4
2023-03-16T07:16:58.705Z,18.4
2023-03-16T07:18:00.678Z,18.5
2023-03-16T07:19:02.677Z,18.5
2023-03-16T07:20:04.480Z,18.4
2023-03-16T07:21:06.393Z,18.4
2023-03-16T07:22:08.326Z,18.4
2023-03-16T07:23:10.136Z,18.4
2023-03-16T07:24:11.945Z,18.5
2023-03-16T07:25:13.668Z,18.6
2023-03-16T07:26:15.611Z,18.6
2023-03-16T07:27:17.469Z,18.5
2023-03-16T07:28:19.218Z,18.5
2023-03-16T07:29:21.170Z,18.5
2023-03-16T07:30:22.893Z,18.6
2023-03-16T07:31:24.806Z,18.6
2023-03-16T07:32:27.085Z,18.6
2023-03-16T07:33:29.176Z,18.6
2023-03-16T07:34:30.930Z,18.5
2023-03-16T07:35:32.781Z,18.5
2023-03-16T07:36:34.873Z,18.5
2023-03-16T07:37:36.791Z,18.5
2023-03-16T07:38:38.637Z,18.5
2023-03-16T07:39:40.501Z,18.6
2023-03-16T07:40:42.419Z,18.5
2023-03-16T07:41:44.401Z,18.5
2023-03-16T07:42:46.245Z,18.6
2023-03-16T07:43:47.989Z,18.5
2023-03-16T07:44:52.182Z,18.6
2023-03-16T07:45:54.207Z,18.6
2023-03-16T07:46:56.411Z,18.7
2023-03-16T07:47:58.247Z,18.7
2023-03-16T07:49:00.118Z,18.6
2023-03-16T07:50:02.104Z,18.6
2023-03-16T07:51:04.009Z,18.6
2023-03-16T07:52:05.854Z,18.6
2023-03-16T07:53:07.805Z,18.6
2023-03-16T07:54:09.726Z,18.5
2023-03-16T07:55:11.620Z,18.5
2023-03-16T07:56:13.440Z,18.5
2023-03-16T07:57:15.318Z,18.5
2023-03-16T07:58:17.277Z,18.5
2023-03-16T07:59:21.154Z,18.5
2023-03-16T08:00:22.896Z,18.5
2023-03-16T08:01:24.526Z,18.5
2023-03-16T08:02:26.365Z,18.4
2023-03-16T08:03:28.699Z,18.4
2023-03-16T08:04:30.817Z,18.5
2023-03-16T08:05:32.795Z,18.5
2023-03-16T08:06:34.936Z,18.5
2023-03-16T08:07:36.814Z,18.5
2023-03-16T08:08:38.534Z,18.6
2023-03-16T08:09:40.294Z,18.5
2023-03-16T08:10:42.121Z,18.5
2023-03-16T08:11:43.984Z,18.5
2023-03-16T08:12:46.005Z,18.6
2023-03-16T08:13:47.987Z,18.6
2023-03-16T08:14:49.846Z,18.5
2023-03-16T08:15:51.906Z,18.6
2023-03-16T08:16:53.850Z,18.6
2023-03-16T08:17:55.715Z,18.6
2023-03-16T08:18:57.557Z,18.6
2023-03-16T08:19:59.404Z,18.6
2023-03-16T08:21:01.357Z,18.6
2023-03-16T08:22:03.308Z,18.6
2023-03-16T08:23:05.287Z,18.6
2023-03-16T08:24:07.081Z,18.6
2023-03-16T08:25:08.978Z,18.7
2023-03-16T08:26:11.120Z,18.6
2023-03-16T08:27:12.853Z,18.6
2023-03-16T08:28:14.790Z,18.6
2023-03-16T08:29:16.797Z,18.7
2023-03-16T08:30:18.925Z,18.6
2023-03-16T08:31:20.962Z,18.6
2023-03-16T08:32:23.138Z,18.6
2023-03-16T08:33:25.189Z,18.6
2023-03-16T08:34:27.208Z,18.6
2023-03-16T08:35:29.090Z,18.6
2023-03-16T08:36:31.051Z,18.7
2023-03-16T08:37:32.889Z,18.6
2023-03-16T08:38:34.755Z,18.7
2023-03-16T08:39:36.605Z,18.7
2023-03-16T08:40:38.448Z,18.6
2023-03-16T08:41:40.340Z,18.6
2023-03-16T08:42:42.221Z,18.6
2023-03-16T08:43:44.104Z,18.6
2023-03-16T08:44:45.943Z,18.7
2023-03-16T08:45:47.786Z,18.7
2023-03-16T08:46:49.839Z,18.7
2023-03-16T08:47:51.921Z,18.7
2023-03-16T08:48:53.650Z,18.7
2023-03-16T08:49:55.506Z,18.7
2023-03-16T08:50:57.350Z,18.7
2023-03-16T08:51:59.310Z,18.7
2023-03-16T08:53:01.274Z,18.9
2023-03-16T08:54:03.118Z,18.7
2023-03-16T08:55:04.869Z,18.7
2023-03-16T08:56:06.598Z,18.7
2023-03-16T08:57:13.330Z,18.7
2023-03-16T08:58:15.237Z,18.7
2023-03-16T08:59:30.377Z,18.7
2023-03-16T09:00:32.536Z,18.7
2023-03-16T09:01:34.483Z,18.6
2023-03-16T09:02:36.651Z,18.6
2023-03-16T09:03:38.551Z,18.6
2023-03-16T09:04:40.622Z,18.6
2023-03-16T09:05:43.138Z,18.7
2023-03-16T09:06:46.468Z,18.6
2023-03-16T09:08:10.366Z,18.6
2023-03-16T09:09:12.255Z,18.7
2023-03-16T09:10:14.071Z,18.7
2023-03-16T09:11:16.027Z,18.7
2023-03-16T09:12:17.904Z,18.6
2023-03-16T09:13:19.829Z,18.6
2023-03-16T09:14:21.673Z,18.6
2023-03-16T09:15:23.646Z,18.6
2023-03-16T09:16:26.087Z,18.6
2023-03-16T09:17:28.147Z,18.6
2023-03-16T09:18:30.100Z,18.6
2023-03-16T09:19:51.897Z,18.7
2023-03-16T09:21:06.881Z,18.6
2023-03-16T09:22:08.736Z,18.6
2023-03-16T09:23:10.566Z,18.6
2023-03-16T09:24:12.317Z,18.6
2023-03-16T09:25:14.310Z,18.5
2023-03-16T09:26:16.229Z,18.7
2023-03-16T09:27:19.014Z,18.7
2023-03-16T09:28:22.386Z,18.6
2023-03-16T09:29:24.345Z,18.7
2023-03-16T09:30:26.063Z,18.6
2023-03-16T09:31:28.173Z,18.7
2023-03-16T09:32:30.241Z,18.6
2023-03-16T09:33:32.447Z,18.6
2023-03-16T09:34:34.408Z,18.7
2023-03-16T09:35:36.606Z,18.7
2023-03-16T09:36:38.627Z,18.7
2023-03-16T09:38:04.188Z,18.6
2023-03-16T09:39:08.770Z,18.6
2023-03-16T09:40:12.334Z,18.6
2023-03-16T09:41:14.201Z,18.6
2023-03-16T09:42:16.059Z,18.5
2023-03-16T09:43:17.988Z,18.6
2023-03-16T09:44:19.801Z,18.5
2023-03-16T09:45:21.594Z,18.6
2023-03-16T09:46:23.656Z,18.7
2023-03-16T09:47:25.603Z,18.6
2023-03-16T09:48:27.294Z,18.6
2023-03-16T09:49:28.997Z,18.5
2023-03-16T09:50:49.575Z,18.5
2023-03-16T09:51:52.831Z,18.5
2023-03-16T09:52:54.583Z,18.4
2023-03-16T09:53:56.356Z,18.5
2023-03-16T09:54:58.204Z,18.5
2023-03-16T09:56:00.087Z,18.5
2023-03-16T09:57:02.144Z,18.5
2023-03-16T09:58:04.091Z,18.5
2023-03-16T09:59:08.487Z,18.6
2023-03-16T10:00:10.321Z,18.6
2023-03-16T10:01:12.250Z,18.6
2023-03-16T10:02:14.078Z,18.6
2023-03-16T10:03:16.101Z,18.6
2023-03-16T10:04:18.071Z,18.6
2023-03-16T10:05:20.057Z,18.6
2023-03-16T10:06:21.944Z,18.6
2023-03-16T10:07:24.001Z,18.6
2023-03-16T10:08:25.957Z,18.6
2023-03-16T10:09:27.773Z,18.6
2023-03-16T10:10:30.418Z,18.6
2023-03-16T10:11:32.770Z,18.6
2023-03-16T10:12:34.590Z,18.6
2023-03-16T10:13:36.424Z,18.6
2023-03-16T10:14:38.456Z,18.6
2023-03-16T10:15:40.525Z,18.7
2023-03-16T10:16:42.320Z,18.7
2023-03-16T10:17:44.328Z,18.7
2023-03-16T10:18:46.393Z,18.7
2023-03-16T10:19:48.233Z,18.7
2023-03-16T10:20:50.057Z,18.7
2023-03-16T10:21:51.850Z,18.7
2023-03-16T10:22:53.691Z,18.6
2023-03-16T10:23:55.531Z,18.5
2023-03-16T10:24:57.296Z,18.5
2023-03-16T10:25:59.275Z,18.6
2023-03-16T10:27:01.100Z,18.6
2023-03-16T10:28:02.962Z,18.5
2023-03-16T10:29:04.887Z,18.6
2023-03-16T10:30:06.749Z,18.6
2023-03-16T10:31:08.594Z,18.6
2023-03-16T10:32:10.305Z,18.6
2023-03-16T10:33:12.473Z,18.6
2023-03-16T10:34:14.650Z,18.6
2023-03-16T10:35:16.508Z,18.6
2023-03-16T10:36:18.532Z,18.6
2023-03-16T10:37:20.730Z,18.6
2023-03-16T10:38:22.672Z,18.6
2023-03-16T10:39:24.509Z,18.5
2023-03-16T10:40:26.665Z,18.5
2023-03-16T10:41:29.545Z,18.5
2023-03-16T10:42:31.389Z,18.5
2023-03-16T10:43:33.362Z,18.6
2023-03-16T10:44:35.187Z,18.6
2023-03-16T10:45:37.282Z,18.7
2023-03-16T10:46:39.793Z,18.6
2023-03-16T10:47:42.205Z,18.6
2023-03-16T10:48:44.027Z,18.6
2023-03-16T10:49:45.787Z,18.6
2023-03-16T10:50:47.605Z,18.6
2023-03-16T10:51:49.596Z,18.6
2023-03-16T10:52:51.442Z,18.6
2023-03-16T10:53:53.268Z,18.5
2023-03-16T10:54:55.343Z,18.5
2023-03-16T10:55:57.195Z,18.5
2023-03-16T10:56:58.988Z,18.5
2023-03-16T10:58:01.004Z,18.4
2023-03-16T10:59:02.985Z,18.4
2023-03-16T11:00:05.110Z,18.5
2023-03-16T11:01:06.886Z,18.6
2023-03-16T11:02:09.013Z,18.6
2023-03-16T11:03:10.863Z,18.5
2023-03-16T11:04:12.836Z,18.6
2023-03-16T11:05:14.761Z,18.6
2023-03-16T11:06:16.726Z,18.6
2023-03-16T11:07:18.462Z,18.6
2023-03-16T11:08:20.298Z,18.6
2023-03-16T11:09:21.973Z,18.6
2023-03-16T11:10:23.920Z,18.5
2023-03-16T11:11:25.781Z,18.5
2023-03-16T11:12:27.611Z,18.5
2023-03-16T11:13:29.466Z,18.5
2023-03-16T11:14:31.347Z,18.4
2023-03-16T11:15:33.285Z,18.4
2023-03-16T11:16:35.661Z,18.5
2023-03-16T11:17:37.400Z,18.5
2023-03-16T11:18:39.292Z,18.6
2023-03-16T11:19:41.275Z,18.5
2023-03-16T11:20:43.135Z,18.5
2023-03-16T11:21:45.043Z,18.6
2023-03-16T11:22:46.961Z,18.6
2023-03-16T11:23:48.793Z,18.6
2023-03-16T11:24:50.632Z,18.6
2023-03-16T11:25:52.495Z,18.6
2023-03-16T11:26:54.749Z,18.6
2023-03-16T11:27:56.511Z,18.6
2023-03-16T11:28:58.541Z,18.6
2023-03-16T11:30:00.599Z,18.7
2023-03-16T11:31:02.545Z,18.5
2023-03-16T11:32:04.628Z,18.5
2023-03-16T11:33:06.507Z,18.5
2023-03-16T11:34:08.582Z,18.6
2023-03-16T11:35:10.474Z,18.7
2023-03-16T11:36:12.366Z,18.7
2023-03-16T11:37:14.539Z,18.7
2023-03-16T11:38:16.435Z,18.7
2023-03-16T11:39:18.285Z,18.7
2023-03-16T11:40:20.223Z,18.6
2023-03-16T11:41:22.085Z,18.6
2023-03-16T11:42:23.943Z,18.6
2023-03-16T11:43:25.895Z,18.7
2023-03-16T11:44:27.876Z,18.6
2023-03-16T11:45:30.864Z,18.7
2023-03-16T11:46:33.485Z,18.7
2023-03-16T11:47:35.249Z,18.6
2023-03-16T11:48:37.198Z,18.6
2023-03-16T11:49:39.039Z,18.6
2023-03-16T11:50:40.990Z,18.5
2023-03-16T11:51:42.728Z,18.5
2023-03-16T11:52:45.319Z,18.5
2023-03-16T11:53:47.054Z,18.5
2023-03-16T11:54:49.025Z,18.5
2023-03-16T11:55:50.947Z,18.6
2023-03-16T11:56:52.803Z,18.6
2023-03-16T11:57:54.588Z,18.6
2023-03-16T11:58:56.515Z,18.5
2023-03-16T12:00:02.203Z,18.6
2023-03-16T12:01:04.318Z,18.6
2023-03-16T12:02:06.351Z,18.6
2023-03-16T12:03:08.621Z,18.6
2023-03-16T12:04:10.923Z,18.6
2023-03-16T12:05:12.930Z,18.6
2023-03-16T12:06:23.943Z,18.5
2023-03-16T12:07:25.840Z,18.6
2023-03-16T12:08:27.583Z,18.6
2023-03-16T12:09:29.630Z,18.6
2023-03-16T12:10:31.492Z,18.6
2023-03-16T12:11:33.440Z,18.6
2023-03-16T12:12:35.260Z,18.6
2023-03-16T12:13:37.028Z,18.6
2023-03-16T12:14:38.889Z,18.6
2023-03-16T12:15:40.836Z,18.6
2023-03-16T12:16:50.062Z,18.6
2023-03-16T12:17:52.013Z,18.6
2023-03-16T12:18:53.831Z,18.6
2023-03-16T12:19:55.718Z,18.5
2023-03-16T12:20:57.679Z,18.5
2023-03-16T12:21:59.401Z,18.5
2023-03-16T12:23:01.256Z,18.5
2023-03-16T12:24:03.112Z,18.6
2023-03-16T12:25:04.761Z,18.5
2023-03-16T12:26:06.714Z,18.5
2023-03-16T12:27:08.470Z,18.5
2023-03-16T12:28:10.310Z,18.5
2023-03-16T12:29:12.043Z,18.6
2023-03-16T12:30:14.052Z,18.6
2023-03-16T12:31:16.144Z,18.6
2023-03-16T12:32:17.920Z,18.5
2023-03-16T12:33:19.763Z,18.5
2023-03-16T12:34:21.651Z,18.5
2023-03-16T12:35:23.472Z,18.4
2023-03-16T12:36:25.528Z,18.4
2023-03-16T12:37:27.222Z,18.4
2023-03-16T12:38:29.093Z,18.4
2023-03-16T12:39:30.810Z,18.4
2023-03-16T12:40:32.623Z,18.4
2023-03-16T12:41:34.552Z,18.4
2023-03-16T12:42:36.505Z,18.4
2023-03-16T12:43:38.426Z,18.4
2023-03-16T12:44:40.533Z,18.5
2023-03-16T12:45:42.419Z,18.5
2023-03-16T12:46:48.018Z,18.6
2023-03-16T12:47:49.963Z,18.5
2023-03-16T12:48:51.692Z,18.6
2023-03-16T12:49:53.549Z,18.6
2023-03-16T12:50:55.411Z,18.6
2023-03-16T12:51:57.275Z,18.6
2023-03-16T12:52:59.112Z,18.6
2023-03-16T12:54:01.064Z,18.6
2023-03-16T12:55:02.807Z,18.6
2023-03-16T12:56:04.654Z,18.6
2023-03-16T12:57:06.516Z,18.8
2023-03-16T12:58:08.383Z,18.7
2023-03-16T12:59:10.310Z,18.8
2023-03-16T13:00:12.393Z,18.7
2023-03-16T13:01:14.423Z,18.7
2023-03-16T13:02:16.467Z,18.7
2023-03-16T13:03:18.359Z,18.6
2023-03-16T13:04:20.446Z,18.6
2023-03-16T13:05:22.851Z,18.6
2023-03-16T13:06:24.699Z,18.7
2023-03-16T13:07:26.615Z,18.7
2023-03-16T13:08:28.297Z,18.6
2023-03-16T13:09:30.053Z,18.6
2023-03-16T13:10:31.891Z,18.6
2023-03-16T13:11:33.741Z,18.6
2023-03-16T13:12:35.504Z,18.6
2023-03-16T13:13:37.337Z,18.5
2023-03-16T13:14:39.197Z,18.6
2023-03-16T13:15:41.015Z,18.6
2023-03-16T13:16:43.117Z,18.6
2023-03-16T13:17:45.407Z,18.6
2023-03-16T13:18:47.516Z,18.6
2023-03-16T13:19:49.264Z,18.5
2023-03-16T13:20:51.013Z,18.5
2023-03-16T13:21:52.865Z,18.5
2023-03-16T13:22:54.706Z,18.4
2023-03-16T13:23:56.473Z,18.4
2023-03-16T13:24:58.312Z,18.4
2023-03-16T13:26:00.235Z,18.4
2023-03-16T13:27:02.320Z,18.4
2023-03-16T13:28:04.033Z,18.5
2023-03-16T13:29:06.026Z,18.4
2023-03-16T13:30:07.874Z,18.4
2023-03-16T13:31:09.716Z,18.5
2023-03-16T13:32:11.584Z,18.5
2023-03-16T13:33:13.474Z,18.5
2023-03-16T13:34:15.214Z,18.4
2023-03-16T13:35:17.017Z,18.4
2023-03-16T13:36:18.856Z,18.3
2023-03-16T13:37:20.689Z,18.3
2023-03-16T13:38:22.437Z,18.3
2023-03-16T13:39:24.319Z,18.3
2023-03-16T13:40:26.267Z,18.3
2023-03-16T13:41:28.083Z,18.3
2023-03-16T13:42:29.966Z,18.3
2023-03-16T13:43:31.831Z,18.4
2023-03-16T13:44:33.674Z,18.4
2023-03-16T13:45:35.656Z,18.4
2023-03-16T13:46:37.640Z,18.4